METAR AND TAF INFORMATION
METAR FOR LPPD
ADDS - METARS form results

(0305 UTC 24 January 2019)
Data provider http://aviationweather.gov/metar/data/
 
METAR text: LPPD 240300Z 16007KT 9999 FEW016 BKN035 16/12 Q1026
Conditions at: LPPD (PONTA DELGADA/NO, PT) observed 0300 UTC 24 January 2019
Temperature: 16.0°C (61°F)
Dewpoint: 12.0°C (54°F) [RH = 77%]
Pressure (altimeter): 30.30 inches Hg (1026.0 mb)
Winds: from the SSE (160 degrees) at 8 MPH (7 knots; 3.6 m/s)
Visibility: 6 or more miles (10+ km)
Ceiling: 3500 feet AGL
Clouds: few clouds at 1600 feet AGL
broken clouds at 3500 feet AGL
Weather: no significant weather observed at this time

METAR text: LPPD 240230Z 17010KT 9999 SCT016 BKN035 16/12 Q1026
Conditions at: LPPD (PONTA DELGADA/NO, PT) observed 0230 UTC 24 January 2019
Temperature: 16.0°C (61°F)
Dewpoint: 12.0°C (54°F) [RH = 77%]
Pressure (altimeter): 30.30 inches Hg (1026.0 mb)
Winds: from the S (170 degrees) at 12 MPH (10 knots; 5.1 m/s)
Visibility: 6 or more miles (10+ km)
Ceiling: 3500 feet AGL
Clouds: scattered clouds at 1600 feet AGL
broken clouds at 3500 feet AGL
Weather: no significant weather observed at this time

Forecast for: LPPD (PONTA DELGADA/NO, PT)
Text: TAF LPPD 232300Z 2400/2424 13005KT 9999 SCT020
Forecast period: 0000 to 1000 UTC 24 January 2019
Forecast type: FROM: standard forecast or significant change
Winds: from the SE (130 degrees) at 6 MPH (5 knots; 2.6 m/s)
Visibility: 6 or more miles 10+ km)
Ceiling: at least 12,000 feet AGL
Clouds: scattered clouds at 2000 feet AGL
Weather: no significant weather forecast for this period
Text: TEMPO 2400/2418 BKN025
Forecast period: 0000 to 1800 UTC 24 January 2019
Forecast type: TEMPORARY: The following changes expected for less than half the time period
Visibility: missing
Ceiling: 2500 feet AGL
Clouds: broken clouds at 2500 feet AGL
Weather: no significant weather forecast for this period
Text: BECMG 2410/2412 16013KT
Forecast period: 1000 UTC 24 January 2019 to 0000 UTC 25 January 2019
Forecast type: BECOMING: Conditions expected to become as follows by 1200 UTC 24 January 2019
Winds: from the SSE (160 degrees) at 15 MPH (13 knots; 6.7 m/s)
Visibility: 6 or more miles 10+ km)
Ceiling: at least 12,000 feet AGL
Clouds: scattered clouds at 2000 feet AGL
Weather: no significant weather forecast for this period

 AIRPORT MAP

 RUNWAY INFORMATION
Runway 12 Runway length 8192 ft Runway width 148 ft
Runway elevation 259 ft Runway displaced threshold 0 ft Runway heading 112
Runway 30 Runway length 8192 ft Runway width 148 ft
Runway elevation 187 ft Runway displaced threshold 787 ft Runway heading 292

 AIRPORT FREQUENCIES
Type APP Name APP Frequency 119.4 MHZ
Type TWR Name TWR Frequency 118.3 MHZ

 AIRPORT NEAR NAVIGATION AIDS
Type NDB Name Ponta Delgada Frequency 371 KHZ
Type NDB Name Ponta Delgada Frequency 351 KHZ
Type VORTAC Name Sao Miguel Frequency 114500 KHZ



Powered by Virtual Airlines Manager [v2.6.2]